Terminal Aerodrome Forecast
Issued by NWS Portland, OR

Home | Current Version | Previous Version | Text Only | Print | Product List | Glossary On
Versions: 1 2 3 4 5 6 7 8 9 10 11 12 13 14 15 16 17
000
FTUS46 KPQR 191722
TAFHIO
TAF
KHIO 191722Z 1918/2018 18012G19KT P6SM -SHRA SCT015 BKN025 OVC050
     FM192100 20016G25KT P6SM SCT025 BKN050
     FM200100 17008KT P6SM -SHRA SCT025 BKN050
     FM200900 15004KT P6SM -RA BKN050
     FM201200 09005KT 6SM -RA OVC050=

USA.gov is the U.S. government's official web portal to all federal, state and local government web resources and services.